The Burg, Illinois
Current Conditions -  °F | °C
As of 10:35 PM on Thursday 20 Nov 2014 (Local Time) from KRPJ Reporting Station
Clear Clear  
Wind Chill:   Ceiling: Unl
Heat Index: 10°   Visibility: 10mi
Dew Point:   Wind: 6mph
Humidity: 76%   Direction: 300°WNW
Pressure: 30.3"   Gusts: NA
Location:  41.7005°N, 89.0835°W
Report Text: KRPJ 210435Z AUTO 30005KT 10SM CLR M12/M16 A3030 RMK AO2 T11221156
Loading
Personal Weather Stations






























Interactive Weather Map New forecast layout! Learn more

10-Day Weather Forecast

Advertisements
Track Severe Weather on mobile